Fort Stockton, TX

10:41 AM CDT on March 31, 2015 (GMT -0500)
Fort Stockton RV Park | | Change Station
CLOSE
Current Station
Personal Weather Station
Location: Fort Stockton, TX
Elevation: 2910 ft
Nearby Weather Stations

Elev 2910 ft 30.89 °N, 102.80 °W | Updated 10 seconds ago

Clear
Clear
69.0 °F
Feels Like 69.0 °F
N
0.0
Wind Variable Wind from SSE
Gusts 4.0 mph

Today
High -- | Low -- °F
--% Chance of Precip.
Yesterday
High -- | Low -- °F
Precip. -- in
7:41 AM 8:09 PM
Waxing Gibbous, 87% visible
Pressure 29.92 in
Visibility 10.0 miles
Clouds Clear
Dew Point 54 °F
Humidity 60%
Rainfall 0.00 in
Snow Depth Not available.
UV 3 out of 12
Pollen 11.00 out of 12
Air Quality Not available.
Flu Activity Not available.
METAR KFST 311453Z AUTO 22008KT 10SM CLR 21/11 A3004 RMK AO2 SLP131 T02060106 53009

More Conditions Fewer Conditions

Pressure 29.92 in
Visibility 10.0 miles
Clouds Clear
Dew Point 54 °F
Humidity 60%
Rainfall 0.00 in
Snow Depth Not available.
UV 3 out of 12
Pollen 11.00 out of 12
Air Quality Not available.
Flu Activity Not available.
METAR KFST 311453Z AUTO 22008KT 10SM CLR 21/11 A3004 RMK AO2 SLP131 T02060106 53009

More Conditions Fewer Conditions

10-Day Weather Forecast

Almanac

Astronomy

Mar. 31, 2015 Rise Set
Actual Time
Civil Twilight
Nautical Twilight
Astronomical Twilight
Moon
Length of Visible Light
Length of Day
Tomorrow will be .
, % of the Moon is Illuminated

Today's Extremes

State Highs State Lows

Community

WunderPhotos

Upload Photos

1,809,781 photos uploaded!

WunderBlogs® & News

Nearby

Air Quality

  Air Quality AQ Index Pollutant
Not available.

Snow Depth

Station Depth Elevation

Earthquake Activity

City Distance Mag. Time & Date
Minimum magnitude displayed is 2.5.

Coastal Water Temperatures

Place Temperature

Stations

Nearby Weather Stations

Station Location Temp. Windchill Dew Point Humidity Wind Precip. Elev Updated Type